sensor_id;sensor_type;location;lat;lon;timestamp;P1;durP1;ratioP1;P2;durP2;ratioP2
1753;SDS011;58380;48.312;9.246;2023-12-04T08:24:06;20.73;;;6.43;;
1753;SDS011;58380;48.312;9.246;2023-12-04T08:27:06;14.13;;;5.82;;
1753;SDS011;58380;48.312;9.246;2023-12-04T08:30:08;20.58;;;7.55;;
1753;SDS011;58380;48.312;9.246;2023-12-04T08:33:08;17.60;;;6.68;;
1753;SDS011;58380;48.312;9.246;2023-12-04T08:36:09;20.38;;;8.02;;
1753;SDS011;58380;48.312;9.246;2023-12-04T08:39:11;21.88;;;7.43;;
1753;SDS011;58380;48.312;9.246;2023-12-04T08:42:12;15.98;;;7.10;;
1753;SDS011;58380;48.312;9.246;2023-12-04T08:45:13;20.17;;;7.47;;
1753;SDS011;58380;48.312;9.246;2023-12-04T08:48:13;17.33;;;7.20;;
1753;SDS011;58380;48.312;9.246;2023-12-04T08:51:17;26.75;;;8.55;;
1753;SDS011;58380;48.312;9.246;2023-12-04T08:54:18;25.92;;;10.60;;
1753;SDS011;58380;48.312;9.246;2023-12-04T08:57:18;25.27;;;9.32;;
1753;SDS011;58380;48.312;9.246;2023-12-04T09:00:19;27.90;;;10.05;;
1753;SDS011;58380;48.312;9.246;2023-12-04T09:03:19;23.33;;;8.98;;
1753;SDS011;58380;48.312;9.246;2023-12-04T09:06:20;30.23;;;10.90;;
1753;SDS011;58380;48.312;9.246;2023-12-04T09:09:21;25.23;;;9.65;;
1753;SDS011;58380;48.312;9.246;2023-12-04T09:12:21;25.08;;;9.52;;
1753;SDS011;58380;48.312;9.246;2023-12-04T09:15:21;19.75;;;7.45;;
1753;SDS011;58380;48.312;9.246;2023-12-04T09:18:22;16.88;;;7.05;;
1753;SDS011;58380;48.312;9.246;2023-12-04T09:21:22;17.92;;;6.53;;
1753;SDS011;58380;48.312;9.246;2023-12-04T09:24:23;16.63;;;7.07;;
1753;SDS011;58380;48.312;9.246;2023-12-04T09:27:23;16.52;;;7.25;;
1753;SDS011;58380;48.312;9.246;2023-12-04T09:30:25;16.40;;;7.38;;
1753;SDS011;58380;48.312;9.246;2023-12-04T09:33:25;14.85;;;6.75;;
1753;SDS011;58380;48.312;9.246;2023-12-04T09:36:26;18.55;;;7.72;;
1753;SDS011;58380;48.312;9.246;2023-12-04T09:39:27;21.02;;;9.68;;
1753;SDS011;58380;48.312;9.246;2023-12-04T09:42:29;20.45;;;8.82;;
1753;SDS011;58380;48.312;9.246;2023-12-04T09:45:32;24.38;;;9.32;;
1753;SDS011;58380;48.312;9.246;2023-12-04T09:48:33;20.52;;;9.23;;
1753;SDS011;58380;48.312;9.246;2023-12-04T09:51:35;16.15;;;7.15;;
1753;SDS011;58380;48.312;9.246;2023-12-04T09:54:38;17.65;;;8.35;;
1753;SDS011;58380;48.312;9.246;2023-12-04T09:57:40;21.33;;;9.27;;
1753;SDS011;58380;48.312;9.246;2023-12-04T10:00:41;22.80;;;8.23;;
1753;SDS011;58380;48.312;9.246;2023-12-04T10:03:43;20.58;;;8.73;;
1753;SDS011;58380;48.312;9.246;2023-12-04T10:06:45;27.20;;;9.93;;
1753;SDS011;58380;48.312;9.246;2023-12-04T10:09:47;23.40;;;10.10;;
1753;SDS011;58380;48.312;9.246;2023-12-04T10:12:48;19.73;;;9.68;;
1753;SDS011;58380;48.312;9.246;2023-12-04T10:15:48;21.27;;;9.02;;
1753;SDS011;58380;48.312;9.246;2023-12-04T10:18:51;18.20;;;8.45;;
1753;SDS011;58380;48.312;9.246;2023-12-04T10:21:52;20.92;;;8.98;;
1753;SDS011;58380;48.312;9.246;2023-12-04T10:24:55;20.98;;;9.63;;
1753;SDS011;58380;48.312;9.246;2023-12-04T10:28:06;20.23;;;8.95;;
1753;SDS011;58380;48.312;9.246;2023-12-04T10:31:12;17.17;;;8.15;;
1753;SDS011;58380;48.312;9.246;2023-12-04T10:34:13;20.33;;;9.18;;
1753;SDS011;58380;48.312;9.246;2023-12-04T10:37:13;22.67;;;10.98;;
1753;SDS011;58380;48.312;9.246;2023-12-04T10:40:22;23.60;;;9.95;;
1753;SDS011;58380;48.312;9.246;2023-12-04T10:43:27;22.88;;;9.63;;
1753;SDS011;58380;48.312;9.246;2023-12-04T10:46:27;20.90;;;9.68;;
1753;SDS011;58380;48.312;9.246;2023-12-04T10:49:28;18.77;;;9.07;;
1753;SDS011;58380;48.312;9.246;2023-12-04T10:52:28;22.95;;;9.45;;
1753;SDS011;58380;48.312;9.246;2023-12-04T10:55:31;20.73;;;9.68;;
1753;SDS011;58380;48.312;9.246;2023-12-04T10:58:32;21.25;;;9.93;;
1753;SDS011;58380;48.312;9.246;2023-12-04T11:01:36;24.63;;;10.75;;
1753;SDS011;58380;48.312;9.246;2023-12-04T11:04:38;18.35;;;8.88;;
1753;SDS011;58380;48.312;9.246;2023-12-04T11:07:41;18.77;;;9.43;;
1753;SDS011;58380;48.312;9.246;2023-12-04T11:11:08;21.40;;;10.68;;
1753;SDS011;58380;48.312;9.246;2023-12-04T11:14:15;22.02;;;10.50;;
1753;SDS011;58380;48.312;9.246;2023-12-04T11:17:22;18.98;;;9.52;;
1753;SDS011;58380;48.312;9.246;2023-12-04T11:20:27;23.17;;;10.23;;
1753;SDS011;58380;48.312;9.246;2023-12-04T11:23:34;16.23;;;8.47;;
1753;SDS011;58380;48.312;9.246;2023-12-04T11:26:35;15.25;;;8.05;;
1753;SDS011;58380;48.312;9.246;2023-12-04T11:29:36;19.20;;;10.90;;
1753;SDS011;58380;48.312;9.246;2023-12-04T11:32:45;41.65;;;18.55;;
1753;SDS011;58380;48.312;9.246;2023-12-04T11:35:49;25.70;;;13.68;;
1753;SDS011;58380;48.312;9.246;2023-12-04T11:38:50;31.50;;;15.23;;
1753;SDS011;58380;48.312;9.246;2023-12-04T11:41:51;47.92;;;19.55;;
1753;SDS011;58380;48.312;9.246;2023-12-04T11:44:58;29.67;;;14.98;;
1753;SDS011;58380;48.312;9.246;2023-12-04T11:47:59;25.20;;;14.73;;
1753;SDS011;58380;48.312;9.246;2023-12-04T11:50:59;28.83;;;14.63;;
1753;SDS011;58380;48.312;9.246;2023-12-04T11:54:00;23.70;;;13.23;;
1753;SDS011;58380;48.312;9.246;2023-12-04T12:03:21;30.95;;;16.38;;
1753;SDS011;58380;48.312;9.246;2023-12-04T12:06:22;28.92;;;16.10;;
1753;SDS011;58380;48.312;9.246;2023-12-04T12:09:23;25.85;;;12.88;;
1753;SDS011;58380;48.312;9.246;2023-12-04T12:12:24;19.35;;;11.05;;
1753;SDS011;58380;48.312;9.246;2023-12-04T12:15:26;22.75;;;11.30;;
1753;SDS011;58380;48.312;9.246;2023-12-04T12:18:27;26.63;;;12.85;;
1753;SDS011;58380;48.312;9.246;2023-12-04T12:21:28;29.85;;;14.35;;
1753;SDS011;58380;48.312;9.246;2023-12-04T12:24:28;23.90;;;11.68;;
1753;SDS011;58380;48.312;9.246;2023-12-04T12:27:29;26.92;;;11.73;;
1753;SDS011;58380;48.312;9.246;2023-12-04T12:30:30;25.38;;;11.40;;
1753;SDS011;58380;48.312;9.246;2023-12-04T12:33:32;26.02;;;12.25;;
1753;SDS011;58380;48.312;9.246;2023-12-04T12:36:32;25.13;;;13.20;;
1753;SDS011;58380;48.312;9.246;2023-12-04T12:39:33;24.20;;;12.55;;
1753;SDS011;58380;48.312;9.246;2023-12-04T12:42:34;24.60;;;13.25;;
1753;SDS011;58380;48.312;9.246;2023-12-04T12:45:39;31.25;;;14.93;;
1753;SDS011;58380;48.312;9.246;2023-12-04T12:48:43;61.88;;;34.65;;
1753;SDS011;58380;48.312;9.246;2023-12-04T12:51:44;34.35;;;18.77;;
1753;SDS011;58380;48.312;9.246;2023-12-04T12:54:45;24.83;;;13.82;;
1753;SDS011;58380;48.312;9.246;2023-12-04T12:57:45;20.35;;;10.98;;
1753;SDS011;58380;48.312;9.246;2023-12-04T13:00:46;25.55;;;12.50;;
1753;SDS011;58380;48.312;9.246;2023-12-04T13:03:48;20.55;;;11.38;;
1753;SDS011;58380;48.312;9.246;2023-12-04T13:06:48;23.83;;;11.95;;
1753;SDS011;58380;48.312;9.246;2023-12-04T13:09:49;18.98;;;9.57;;
1753;SDS011;58380;48.312;9.246;2023-12-04T13:12:50;21.05;;;11.38;;
1753;SDS011;58380;48.312;9.246;2023-12-04T13:15:55;24.92;;;13.88;;
1753;SDS011;58380;48.312;9.246;2023-12-04T13:18:55;27.05;;;12.65;;
1753;SDS011;58380;48.312;9.246;2023-12-04T13:21:56;17.70;;;9.23;;
1753;SDS011;58380;48.312;9.246;2023-12-04T13:24:56;18.95;;;9.85;;
1753;SDS011;58380;48.312;9.246;2023-12-04T13:27:56;17.63;;;9.98;;
1753;SDS011;58380;48.312;9.246;2023-12-04T13:30:57;18.52;;;10.02;;
1753;SDS011;58380;48.312;9.246;2023-12-04T13:33:57;23.08;;;12.23;;
1753;SDS011;58380;48.312;9.246;2023-12-04T13:36:58;32.85;;;14.55;;
1753;SDS011;58380;48.312;9.246;2023-12-04T13:39:59;27.05;;;13.60;;
1753;SDS011;58380;48.312;9.246;2023-12-04T13:43:04;24.80;;;12.10;;
1753;SDS011;58380;48.312;9.246;2023-12-04T13:46:23;25.42;;;11.23;;
1753;SDS011;58380;48.312;9.246;2023-12-04T13:49:23;17.92;;;9.60;;
1753;SDS011;58380;48.312;9.246;2023-12-04T13:52:24;19.02;;;10.23;;
1753;SDS011;58380;48.312;9.246;2023-12-04T13:55:24;17.90;;;10.60;;
1753;SDS011;58380;48.312;9.246;2023-12-04T13:58:51;21.38;;;11.27;;
1753;SDS011;58380;48.312;9.246;2023-12-04T14:01:58;21.50;;;9.75;;
1753;SDS011;58380;48.312;9.246;2023-12-04T14:05:00;17.27;;;10.77;;
1753;SDS011;58380;48.312;9.246;2023-12-04T14:08:01;19.20;;;10.85;;
1753;SDS011;58380;48.312;9.246;2023-12-04T14:11:02;14.88;;;9.57;;
1753;SDS011;58380;48.312;9.246;2023-12-04T14:14:04;15.90;;;8.80;;
1753;SDS011;58380;48.312;9.246;2023-12-04T14:17:04;20.10;;;9.75;;
1753;SDS011;58380;48.312;9.246;2023-12-04T14:20:07;19.85;;;10.23;;
1753;SDS011;58380;48.312;9.246;2023-12-04T14:23:17;17.67;;;10.32;;
1753;SDS011;58380;48.312;9.246;2023-12-04T14:26:18;18.73;;;9.90;;
1753;SDS011;58380;48.312;9.246;2023-12-04T14:29:19;19.52;;;9.63;;
1753;SDS011;58380;48.312;9.246;2023-12-04T14:32:19;18.52;;;8.57;;
1753;SDS011;58380;48.312;9.246;2023-12-04T14:35:21;19.80;;;9.32;;
1753;SDS011;58380;48.312;9.246;2023-12-04T14:38:21;21.48;;;11.75;;
1753;SDS011;58380;48.312;9.246;2023-12-04T14:41:22;22.02;;;10.50;;
1753;SDS011;58380;48.312;9.246;2023-12-04T14:44:23;28.55;;;11.98;;
1753;SDS011;58380;48.312;9.246;2023-12-04T14:47:23;26.55;;;12.57;;
1753;SDS011;58380;48.312;9.246;2023-12-04T14:50:23;21.10;;;10.50;;
1753;SDS011;58380;48.312;9.246;2023-12-04T14:53:24;20.95;;;11.43;;
1753;SDS011;58380;48.312;9.246;2023-12-04T14:56:30;21.80;;;11.32;;
1753;SDS011;58380;48.312;9.246;2023-12-04T14:59:36;17.30;;;10.02;;
1753;SDS011;58380;48.312;9.246;2023-12-04T15:02:56;24.90;;;11.93;;
1753;SDS011;58380;48.312;9.246;2023-12-04T15:06:02;23.27;;;12.07;;
1753;SDS011;58380;48.312;9.246;2023-12-04T15:09:12;31.08;;;14.98;;
1753;SDS011;58380;48.312;9.246;2023-12-04T15:12:42;27.42;;;13.60;;
1753;SDS011;58380;48.312;9.246;2023-12-04T15:15:51;23.30;;;11.75;;
1753;SDS011;58380;48.312;9.246;2023-12-04T15:22:11;20.83;;;10.40;;
1753;SDS011;58380;48.312;9.246;2023-12-04T15:25:11;19.75;;;10.48;;
1753;SDS011;58380;48.312;9.246;2023-12-04T15:28:12;23.10;;;10.65;;
1753;SDS011;58380;48.312;9.246;2023-12-04T15:31:12;23.48;;;11.52;;
1753;SDS011;58380;48.312;9.246;2023-12-04T15:34:13;25.90;;;11.73;;
1753;SDS011;58380;48.312;9.246;2023-12-04T15:37:13;23.63;;;12.63;;
1753;SDS011;58380;48.312;9.246;2023-12-04T15:40:14;22.98;;;10.98;;
1753;SDS011;58380;48.312;9.246;2023-12-04T15:43:14;22.40;;;11.27;;
1753;SDS011;58380;48.312;9.246;2023-12-04T15:46:15;25.02;;;11.77;;
1753;SDS011;58380;48.312;9.246;2023-12-04T15:49:17;26.08;;;12.93;;
1753;SDS011;58380;48.312;9.246;2023-12-04T15:52:18;22.52;;;11.68;;
1753;SDS011;58380;48.312;9.246;2023-12-04T15:55:18;19.65;;;9.93;;
1753;SDS011;58380;48.312;9.246;2023-12-04T15:58:20;22.52;;;11.07;;
1753;SDS011;58380;48.312;9.246;2023-12-04T16:01:21;22.88;;;10.55;;
1753;SDS011;58380;48.312;9.246;2023-12-04T16:04:22;24.60;;;11.07;;
1753;SDS011;58380;48.312;9.246;2023-12-04T16:07:22;27.63;;;13.07;;
1753;SDS011;58380;48.312;9.246;2023-12-04T16:10:22;27.58;;;13.85;;
1753;SDS011;58380;48.312;9.246;2023-12-04T16:13:23;32.30;;;14.05;;
1753;SDS011;58380;48.312;9.246;2023-12-04T16:16:23;38.10;;;19.40;;
1753;SDS011;58380;48.312;9.246;2023-12-04T16:19:24;30.10;;;15.30;;
1753;SDS011;58380;48.312;9.246;2023-12-04T16:22:24;35.10;;;16.25;;
1753;SDS011;58380;48.312;9.246;2023-12-04T16:25:24;28.10;;;13.00;;
1753;SDS011;58380;48.312;9.246;2023-12-04T16:28:25;23.52;;;11.63;;
1753;SDS011;58380;48.312;9.246;2023-12-04T16:31:25;45.28;;;18.35;;
1753;SDS011;58380;48.312;9.246;2023-12-04T16:34:26;22.63;;;11.40;;
1753;SDS011;58380;48.312;9.246;2023-12-04T16:37:27;24.85;;;11.93;;
1753;SDS011;58380;48.312;9.246;2023-12-04T16:40:28;22.63;;;12.07;;
1753;SDS011;58380;48.312;9.246;2023-12-04T16:43:29;26.33;;;13.95;;
1753;SDS011;58380;48.312;9.246;2023-12-04T16:46:29;22.30;;;12.07;;
1753;SDS011;58380;48.312;9.246;2023-12-04T16:49:30;27.35;;;13.52;;
1753;SDS011;58380;48.312;9.246;2023-12-04T16:52:30;27.63;;;13.77;;
1753;SDS011;58380;48.312;9.246;2023-12-04T16:55:31;19.95;;;10.50;;
1753;SDS011;58380;48.312;9.246;2023-12-04T16:58:31;26.83;;;12.80;;
1753;SDS011;58380;48.312;9.246;2023-12-04T17:01:32;21.00;;;11.60;;
1753;SDS011;58380;48.312;9.246;2023-12-04T17:04:32;23.38;;;12.65;;
1753;SDS011;58380;48.312;9.246;2023-12-04T17:07:32;18.42;;;9.45;;
1753;SDS011;58380;48.312;9.246;2023-12-04T17:10:33;19.65;;;10.35;;
1753;SDS011;58380;48.312;9.246;2023-12-04T17:13:33;27.30;;;14.00;;
1753;SDS011;58380;48.312;9.246;2023-12-04T17:16:34;25.60;;;11.25;;
1753;SDS011;58380;48.312;9.246;2023-12-04T17:19:34;20.05;;;9.80;;
1753;SDS011;58380;48.312;9.246;2023-12-04T17:22:35;20.33;;;10.40;;
1753;SDS011;58380;48.312;9.246;2023-12-04T17:25:36;23.50;;;12.10;;
1753;SDS011;58380;48.312;9.246;2023-12-04T17:28:36;25.60;;;12.27;;
1753;SDS011;58380;48.312;9.246;2023-12-04T17:31:37;22.30;;;11.30;;
1753;SDS011;58380;48.312;9.246;2023-12-04T17:34:38;23.00;;;11.80;;
1753;SDS011;58380;48.312;9.246;2023-12-04T17:37:39;19.83;;;10.25;;
1753;SDS011;58380;48.312;9.246;2023-12-04T17:40:40;18.52;;;10.73;;
1753;SDS011;58380;48.312;9.246;2023-12-04T17:43:41;22.88;;;12.18;;
1753;SDS011;58380;48.312;9.246;2023-12-04T17:46:42;30.52;;;16.63;;
1753;SDS011;58380;48.312;9.246;2023-12-04T17:49:42;31.55;;;16.35;;
1753;SDS011;58380;48.312;9.246;2023-12-04T17:52:43;35.88;;;19.58;;
1753;SDS011;58380;48.312;9.246;2023-12-04T17:55:44;50.60;;;22.83;;
1753;SDS011;58380;48.312;9.246;2023-12-04T17:58:45;38.63;;;19.88;;
1753;SDS011;58380;48.312;9.246;2023-12-04T18:01:45;31.50;;;16.50;;
1753;SDS011;58380;48.312;9.246;2023-12-04T18:04:46;41.28;;;20.73;;
1753;SDS011;58380;48.312;9.246;2023-12-04T18:07:47;45.28;;;21.73;;
1753;SDS011;58380;48.312;9.246;2023-12-04T18:10:47;44.05;;;20.75;;
1753;SDS011;58380;48.312;9.246;2023-12-04T18:13:48;39.78;;;16.83;;
1753;SDS011;58380;48.312;9.246;2023-12-04T18:16:49;26.52;;;12.60;;
1753;SDS011;58380;48.312;9.246;2023-12-04T18:19:49;36.33;;;17.30;;
1753;SDS011;58380;48.312;9.246;2023-12-04T18:22:53;37.88;;;16.88;;
1753;SDS011;58380;48.312;9.246;2023-12-04T18:25:53;25.98;;;12.98;;
1753;SDS011;58380;48.312;9.246;2023-12-04T18:28:54;29.63;;;15.20;;
1753;SDS011;58380;48.312;9.246;2023-12-04T18:31:55;27.90;;;12.77;;
1753;SDS011;58380;48.312;9.246;2023-12-04T18:34:55;20.23;;;10.25;;
1753;SDS011;58380;48.312;9.246;2023-12-04T18:38:05;20.13;;;10.80;;
1753;SDS011;58380;48.312;9.246;2023-12-04T18:41:13;20.92;;;10.88;;
1753;SDS011;58380;48.312;9.246;2023-12-04T18:44:14;20.17;;;10.80;;
1753;SDS011;58380;48.312;9.246;2023-12-04T18:47:16;21.40;;;11.38;;
1753;SDS011;58380;48.312;9.246;2023-12-04T18:50:20;24.05;;;11.82;;
1753;SDS011;58380;48.312;9.246;2023-12-04T18:53:22;29.73;;;16.48;;
1753;SDS011;58380;48.312;9.246;2023-12-04T18:56:23;28.83;;;15.68;;
1753;SDS011;58380;48.312;9.246;2023-12-04T18:59:24;27.25;;;15.95;;
1753;SDS011;58380;48.312;9.246;2023-12-04T19:02:24;30.55;;;15.77;;
1753;SDS011;58380;48.312;9.246;2023-12-04T19:05:25;25.75;;;13.10;;
1753;SDS011;58380;48.312;9.246;2023-12-04T19:08:30;26.45;;;12.98;;
1753;SDS011;58380;48.312;9.246;2023-12-04T19:11:30;27.77;;;14.63;;
1753;SDS011;58380;48.312;9.246;2023-12-04T19:14:32;23.98;;;13.70;;
1753;SDS011;58380;48.312;9.246;2023-12-04T19:17:32;24.92;;;12.73;;
1753;SDS011;58380;48.312;9.246;2023-12-04T19:20:32;25.67;;;14.45;;
1753;SDS011;58380;48.312;9.246;2023-12-04T19:23:33;39.40;;;19.33;;
1753;SDS011;58380;48.312;9.246;2023-12-04T19:26:33;47.20;;;23.50;;
1753;SDS011;58380;48.312;9.246;2023-12-04T19:29:34;46.00;;;20.50;;
1753;SDS011;58380;48.312;9.246;2023-12-04T19:32:35;31.10;;;15.93;;
1753;SDS011;58380;48.312;9.246;2023-12-04T19:35:36;27.38;;;15.20;;
1753;SDS011;58380;48.312;9.246;2023-12-04T19:38:37;23.27;;;12.50;;
1753;SDS011;58380;48.312;9.246;2023-12-04T19:41:38;23.58;;;12.52;;
1753;SDS011;58380;48.312;9.246;2023-12-04T19:44:42;20.25;;;9.70;;
1753;SDS011;58380;48.312;9.246;2023-12-04T19:47:45;18.40;;;10.20;;
1753;SDS011;58380;48.312;9.246;2023-12-04T19:50:46;22.17;;;11.68;;
1753;SDS011;58380;48.312;9.246;2023-12-04T19:53:46;30.67;;;13.88;;
1753;SDS011;58380;48.312;9.246;2023-12-04T19:56:47;25.38;;;13.80;;
1753;SDS011;58380;48.312;9.246;2023-12-04T19:59:48;26.80;;;13.30;;
1753;SDS011;58380;48.312;9.246;2023-12-04T20:02:49;23.23;;;12.70;;
1753;SDS011;58380;48.312;9.246;2023-12-04T20:05:49;21.65;;;11.18;;
1753;SDS011;58380;48.312;9.246;2023-12-04T20:08:50;26.90;;;14.30;;
1753;SDS011;58380;48.312;9.246;2023-12-04T20:11:50;31.77;;;13.38;;
1753;SDS011;58380;48.312;9.246;2023-12-04T20:14:50;26.90;;;12.23;;
1753;SDS011;58380;48.312;9.246;2023-12-04T20:17:51;21.55;;;10.65;;
1753;SDS011;58380;48.312;9.246;2023-12-04T20:20:52;20.65;;;10.82;;
1753;SDS011;58380;48.312;9.246;2023-12-04T20:23:52;21.35;;;11.00;;
1753;SDS011;58380;48.312;9.246;2023-12-04T20:26:52;20.88;;;10.63;;
1753;SDS011;58380;48.312;9.246;2023-12-04T20:29:53;22.15;;;10.90;;
1753;SDS011;58380;48.312;9.246;2023-12-04T20:32:54;26.90;;;12.43;;
1753;SDS011;58380;48.312;9.246;2023-12-04T20:35:54;26.20;;;12.45;;
1753;SDS011;58380;48.312;9.246;2023-12-04T20:38:55;18.73;;;9.70;;
1753;SDS011;58380;48.312;9.246;2023-12-04T20:41:55;28.25;;;13.20;;
1753;SDS011;58380;48.312;9.246;2023-12-04T20:44:56;28.88;;;12.95;;
1753;SDS011;58380;48.312;9.246;2023-12-04T20:47:56;22.85;;;10.98;;
1753;SDS011;58380;48.312;9.246;2023-12-04T20:50:56;36.55;;;17.88;;
1753;SDS011;58380;48.312;9.246;2023-12-04T20:53:57;61.42;;;26.25;;
1753;SDS011;58380;48.312;9.246;2023-12-04T20:56:57;40.17;;;19.30;;
1753;SDS011;58380;48.312;9.246;2023-12-04T20:59:58;36.38;;;18.23;;
1753;SDS011;58380;48.312;9.246;2023-12-04T21:02:58;34.25;;;17.70;;
1753;SDS011;58380;48.312;9.246;2023-12-04T21:05:58;36.20;;;15.93;;
1753;SDS011;58380;48.312;9.246;2023-12-04T21:08:59;41.50;;;18.63;;
1753;SDS011;58380;48.312;9.246;2023-12-04T21:11:59;38.75;;;17.58;;
1753;SDS011;58380;48.312;9.246;2023-12-04T21:15:00;36.70;;;19.65;;
1753;SDS011;58380;48.312;9.246;2023-12-04T21:18:01;45.80;;;20.63;;
1753;SDS011;58380;48.312;9.246;2023-12-04T21:21:02;42.88;;;21.80;;
1753;SDS011;58380;48.312;9.246;2023-12-04T21:24:03;32.05;;;17.05;;
1753;SDS011;58380;48.312;9.246;2023-12-04T21:27:04;30.40;;;16.08;;
1753;SDS011;58380;48.312;9.246;2023-12-04T21:30:05;27.55;;;13.77;;
1753;SDS011;58380;48.312;9.246;2023-12-04T21:33:07;28.00;;;11.98;;
1753;SDS011;58380;48.312;9.246;2023-12-04T21:36:08;24.70;;;12.38;;
1753;SDS011;58380;48.312;9.246;2023-12-04T21:39:10;29.20;;;14.05;;
1753;SDS011;58380;48.312;9.246;2023-12-04T21:42:11;26.58;;;12.48;;
1753;SDS011;58380;48.312;9.246;2023-12-04T21:45:12;28.67;;;13.18;;
1753;SDS011;58380;48.312;9.246;2023-12-04T21:48:13;28.98;;;14.93;;
1753;SDS011;58380;48.312;9.246;2023-12-04T21:51:14;28.63;;;14.30;;
1753;SDS011;58380;48.312;9.246;2023-12-04T21:54:14;34.13;;;17.83;;
1753;SDS011;58380;48.312;9.246;2023-12-04T21:57:14;37.47;;;18.45;;
1753;SDS011;58380;48.312;9.246;2023-12-04T22:00:15;30.50;;;16.98;;
1753;SDS011;58380;48.312;9.246;2023-12-04T22:03:16;27.65;;;13.98;;
1753;SDS011;58380;48.312;9.246;2023-12-04T22:06:16;28.58;;;13.18;;
